sensor_id;sensor_type;location;lat;lon;timestamp;P1;durP1;ratioP1;P2;durP2;ratioP2
81508;SDS011;70930;52.412;13.554;2023-12-07T00:00:42;18.65;;;10.77;;
81508;SDS011;70930;52.412;13.554;2023-12-07T00:03:08;21.83;;;12.68;;
81508;SDS011;70930;52.412;13.554;2023-12-07T00:05:33;19.98;;;10.98;;
81508;SDS011;70930;52.412;13.554;2023-12-07T00:07:59;20.60;;;11.57;;
81508;SDS011;70930;52.412;13.554;2023-12-07T00:10:24;27.35;;;12.85;;
81508;SDS011;70930;52.412;13.554;2023-12-07T00:12:49;18.05;;;10.75;;
81508;SDS011;70930;52.412;13.554;2023-12-07T00:15:15;18.98;;;11.30;;
81508;SDS011;70930;52.412;13.554;2023-12-07T00:17:40;20.50;;;10.88;;
81508;SDS011;70930;52.412;13.554;2023-12-07T00:20:06;17.45;;;10.10;;
81508;SDS011;70930;52.412;13.554;2023-12-07T00:22:32;18.35;;;10.90;;
81508;SDS011;70930;52.412;13.554;2023-12-07T00:24:57;21.90;;;11.63;;
81508;SDS011;70930;52.412;13.554;2023-12-07T00:27:23;20.33;;;10.90;;
81508;SDS011;70930;52.412;13.554;2023-12-07T00:29:49;21.33;;;11.38;;
81508;SDS011;70930;52.412;13.554;2023-12-07T00:32:14;19.45;;;11.15;;
81508;SDS011;70930;52.412;13.554;2023-12-07T00:34:40;19.75;;;11.52;;
81508;SDS011;70930;52.412;13.554;2023-12-07T00:37:05;26.92;;;13.38;;
81508;SDS011;70930;52.412;13.554;2023-12-07T00:39:30;23.45;;;12.35;;
81508;SDS011;70930;52.412;13.554;2023-12-07T00:41:56;20.65;;;11.23;;
81508;SDS011;70930;52.412;13.554;2023-12-07T00:44:21;21.02;;;11.00;;
81508;SDS011;70930;52.412;13.554;2023-12-07T00:46:46;26.13;;;13.05;;
81508;SDS011;70930;52.412;13.554;2023-12-07T00:49:15;23.63;;;12.25;;
81508;SDS011;70930;52.412;13.554;2023-12-07T00:51:40;23.45;;;12.52;;
81508;SDS011;70930;52.412;13.554;2023-12-07T00:54:05;25.20;;;12.60;;
81508;SDS011;70930;52.412;13.554;2023-12-07T00:56:31;17.33;;;9.65;;
81508;SDS011;70930;52.412;13.554;2023-12-07T00:58:56;19.42;;;11.13;;
81508;SDS011;70930;52.412;13.554;2023-12-07T01:01:21;24.40;;;12.30;;
81508;SDS011;70930;52.412;13.554;2023-12-07T01:03:47;21.13;;;11.77;;
81508;SDS011;70930;52.412;13.554;2023-12-07T01:06:12;17.77;;;11.20;;
81508;SDS011;70930;52.412;13.554;2023-12-07T01:08:37;17.30;;;10.52;;
81508;SDS011;70930;52.412;13.554;2023-12-07T01:11:03;23.92;;;12.52;;
81508;SDS011;70930;52.412;13.554;2023-12-07T01:13:29;18.92;;;10.50;;
81508;SDS011;70930;52.412;13.554;2023-12-07T01:15:55;18.95;;;10.13;;
81508;SDS011;70930;52.412;13.554;2023-12-07T01:18:21;19.80;;;11.95;;
81508;SDS011;70930;52.412;13.554;2023-12-07T01:20:46;18.95;;;10.40;;
81508;SDS011;70930;52.412;13.554;2023-12-07T01:23:13;19.48;;;11.38;;
81508;SDS011;70930;52.412;13.554;2023-12-07T01:25:38;17.83;;;10.73;;
81508;SDS011;70930;52.412;13.554;2023-12-07T01:28:04;18.83;;;10.48;;
81508;SDS011;70930;52.412;13.554;2023-12-07T01:30:29;30.13;;;13.93;;
81508;SDS011;70930;52.412;13.554;2023-12-07T01:32:55;17.95;;;10.82;;
81508;SDS011;70930;52.412;13.554;2023-12-07T01:35:20;20.95;;;11.82;;
81508;SDS011;70930;52.412;13.554;2023-12-07T01:37:46;25.48;;;13.30;;
81508;SDS011;70930;52.412;13.554;2023-12-07T01:40:11;22.30;;;11.95;;
81508;SDS011;70930;52.412;13.554;2023-12-07T01:42:37;23.88;;;12.32;;
81508;SDS011;70930;52.412;13.554;2023-12-07T01:45:03;17.15;;;10.27;;
81508;SDS011;70930;52.412;13.554;2023-12-07T01:47:30;19.08;;;10.23;;
81508;SDS011;70930;52.412;13.554;2023-12-07T01:49:56;18.00;;;10.20;;
81508;SDS011;70930;52.412;13.554;2023-12-07T01:52:22;19.08;;;10.40;;
81508;SDS011;70930;52.412;13.554;2023-12-07T01:54:50;16.55;;;10.40;;
81508;SDS011;70930;52.412;13.554;2023-12-07T01:57:15;20.60;;;12.00;;
81508;SDS011;70930;52.412;13.554;2023-12-07T01:59:41;24.70;;;12.93;;
81508;SDS011;70930;52.412;13.554;2023-12-07T02:02:06;26.02;;;14.02;;
81508;SDS011;70930;52.412;13.554;2023-12-07T02:04:32;19.35;;;11.05;;
81508;SDS011;70930;52.412;13.554;2023-12-07T02:06:57;30.92;;;14.43;;
81508;SDS011;70930;52.412;13.554;2023-12-07T02:09:25;19.20;;;11.45;;
81508;SDS011;70930;52.412;13.554;2023-12-07T02:11:50;17.60;;;10.07;;
81508;SDS011;70930;52.412;13.554;2023-12-07T02:14:16;19.90;;;11.48;;
81508;SDS011;70930;52.412;13.554;2023-12-07T02:16:44;22.77;;;12.30;;
81508;SDS011;70930;52.412;13.554;2023-12-07T02:21:51;19.00;;;10.68;;
81508;SDS011;70930;52.412;13.554;2023-12-07T02:24:20;16.40;;;10.55;;
81508;SDS011;70930;52.412;13.554;2023-12-07T02:26:47;19.65;;;11.43;;
81508;SDS011;70930;52.412;13.554;2023-12-07T02:29:14;21.15;;;11.27;;
81508;SDS011;70930;52.412;13.554;2023-12-07T02:31:39;22.35;;;11.98;;
81508;SDS011;70930;52.412;13.554;2023-12-07T02:34:05;19.58;;;11.13;;
81508;SDS011;70930;52.412;13.554;2023-12-07T02:36:30;22.17;;;11.85;;
81508;SDS011;70930;52.412;13.554;2023-12-07T02:38:59;22.85;;;12.43;;
81508;SDS011;70930;52.412;13.554;2023-12-07T02:41:28;20.42;;;11.65;;
81508;SDS011;70930;52.412;13.554;2023-12-07T02:43:56;30.73;;;13.85;;
81508;SDS011;70930;52.412;13.554;2023-12-07T02:46:23;18.80;;;10.60;;
81508;SDS011;70930;52.412;13.554;2023-12-07T02:48:49;22.08;;;12.65;;
81508;SDS011;70930;52.412;13.554;2023-12-07T02:51:15;29.00;;;13.27;;
81508;SDS011;70930;52.412;13.554;2023-12-07T02:53:40;23.88;;;11.93;;
81508;SDS011;70930;52.412;13.554;2023-12-07T02:56:05;19.88;;;10.38;;
81508;SDS011;70930;52.412;13.554;2023-12-07T02:58:31;21.27;;;11.48;;
81508;SDS011;70930;52.412;13.554;2023-12-07T03:00:57;18.02;;;11.18;;
81508;SDS011;70930;52.412;13.554;2023-12-07T03:03:22;27.75;;;13.85;;
81508;SDS011;70930;52.412;13.554;2023-12-07T03:05:47;18.13;;;10.75;;
81508;SDS011;70930;52.412;13.554;2023-12-07T03:08:13;22.40;;;12.85;;
81508;SDS011;70930;52.412;13.554;2023-12-07T03:10:38;30.17;;;15.00;;
81508;SDS011;70930;52.412;13.554;2023-12-07T03:13:03;20.63;;;11.80;;
81508;SDS011;70930;52.412;13.554;2023-12-07T03:15:28;27.40;;;13.68;;
81508;SDS011;70930;52.412;13.554;2023-12-07T03:17:54;28.02;;;14.30;;
81508;SDS011;70930;52.412;13.554;2023-12-07T03:20:19;21.95;;;12.02;;
81508;SDS011;70930;52.412;13.554;2023-12-07T03:22:45;22.63;;;12.90;;
81508;SDS011;70930;52.412;13.554;2023-12-07T03:25:13;22.13;;;12.85;;
81508;SDS011;70930;52.412;13.554;2023-12-07T03:27:39;20.88;;;11.85;;
81508;SDS011;70930;52.412;13.554;2023-12-07T03:30:04;31.95;;;14.80;;
81508;SDS011;70930;52.412;13.554;2023-12-07T03:32:30;32.65;;;15.27;;
81508;SDS011;70930;52.412;13.554;2023-12-07T03:34:55;26.20;;;12.75;;
81508;SDS011;70930;52.412;13.554;2023-12-07T03:37:21;22.77;;;11.27;;
81508;SDS011;70930;52.412;13.554;2023-12-07T03:39:46;25.83;;;13.38;;
81508;SDS011;70930;52.412;13.554;2023-12-07T03:42:11;33.17;;;14.85;;
81508;SDS011;70930;52.412;13.554;2023-12-07T03:44:37;24.40;;;13.48;;
81508;SDS011;70930;52.412;13.554;2023-12-07T03:47:02;24.75;;;13.05;;
81508;SDS011;70930;52.412;13.554;2023-12-07T03:49:28;23.08;;;13.30;;
81508;SDS011;70930;52.412;13.554;2023-12-07T03:51:55;16.45;;;10.10;;
81508;SDS011;70930;52.412;13.554;2023-12-07T03:54:21;32.63;;;14.88;;
81508;SDS011;70930;52.412;13.554;2023-12-07T03:56:46;25.35;;;12.52;;
81508;SDS011;70930;52.412;13.554;2023-12-07T03:59:11;25.40;;;12.23;;
81508;SDS011;70930;52.412;13.554;2023-12-07T04:01:37;37.00;;;16.20;;
81508;SDS011;70930;52.412;13.554;2023-12-07T04:04:02;20.77;;;11.90;;
81508;SDS011;70930;52.412;13.554;2023-12-07T04:06:29;21.83;;;12.15;;
81508;SDS011;70930;52.412;13.554;2023-12-07T04:08:54;22.17;;;12.00;;
81508;SDS011;70930;52.412;13.554;2023-12-07T04:11:20;26.27;;;14.20;;
81508;SDS011;70930;52.412;13.554;2023-12-07T04:13:46;30.00;;;14.23;;
81508;SDS011;70930;52.412;13.554;2023-12-07T04:16:11;29.50;;;14.98;;
81508;SDS011;70930;52.412;13.554;2023-12-07T04:18:37;21.77;;;12.48;;
81508;SDS011;70930;52.412;13.554;2023-12-07T04:21:02;29.83;;;14.50;;
81508;SDS011;70930;52.412;13.554;2023-12-07T04:23:28;20.85;;;11.65;;
81508;SDS011;70930;52.412;13.554;2023-12-07T04:25:54;24.15;;;13.20;;
81508;SDS011;70930;52.412;13.554;2023-12-07T04:28:20;30.70;;;14.45;;
81508;SDS011;70930;52.412;13.554;2023-12-07T04:30:45;25.05;;;13.88;;
81508;SDS011;70930;52.412;13.554;2023-12-07T04:33:10;28.75;;;15.02;;
81508;SDS011;70930;52.412;13.554;2023-12-07T04:35:36;27.55;;;13.48;;
81508;SDS011;70930;52.412;13.554;2023-12-07T04:38:01;25.00;;;14.77;;
81508;SDS011;70930;52.412;13.554;2023-12-07T04:40:27;31.70;;;14.60;;
81508;SDS011;70930;52.412;13.554;2023-12-07T04:42:52;26.80;;;13.40;;
81508;SDS011;70930;52.412;13.554;2023-12-07T04:45:17;26.23;;;12.98;;
81508;SDS011;70930;52.412;13.554;2023-12-07T04:47:43;33.55;;;14.75;;
81508;SDS011;70930;52.412;13.554;2023-12-07T04:50:10;28.33;;;14.05;;
81508;SDS011;70930;52.412;13.554;2023-12-07T04:52:35;29.45;;;14.27;;
81508;SDS011;70930;52.412;13.554;2023-12-07T04:55:01;28.80;;;14.63;;
81508;SDS011;70930;52.412;13.554;2023-12-07T04:57:26;28.13;;;13.55;;
81508;SDS011;70930;52.412;13.554;2023-12-07T04:59:52;26.52;;;13.77;;
81508;SDS011;70930;52.412;13.554;2023-12-07T05:02:17;23.70;;;13.60;;
81508;SDS011;70930;52.412;13.554;2023-12-07T05:04:45;28.17;;;13.45;;
81508;SDS011;70930;52.412;13.554;2023-12-07T05:07:11;26.92;;;13.85;;
81508;SDS011;70930;52.412;13.554;2023-12-07T05:09:38;29.80;;;13.35;;
81508;SDS011;70930;52.412;13.554;2023-12-07T05:12:03;27.13;;;13.98;;
81508;SDS011;70930;52.412;13.554;2023-12-07T05:14:30;25.77;;;12.68;;
81508;SDS011;70930;52.412;13.554;2023-12-07T05:16:56;29.52;;;14.15;;
81508;SDS011;70930;52.412;13.554;2023-12-07T05:19:22;28.48;;;14.23;;
81508;SDS011;70930;52.412;13.554;2023-12-07T05:21:50;27.20;;;14.50;;
81508;SDS011;70930;52.412;13.554;2023-12-07T05:24:16;28.65;;;14.55;;
81508;SDS011;70930;52.412;13.554;2023-12-07T05:26:42;31.33;;;14.25;;
81508;SDS011;70930;52.412;13.554;2023-12-07T05:29:11;31.35;;;15.35;;
81508;SDS011;70930;52.412;13.554;2023-12-07T05:31:37;26.33;;;13.10;;
81508;SDS011;70930;52.412;13.554;2023-12-07T05:34:03;25.17;;;13.48;;
81508;SDS011;70930;52.412;13.554;2023-12-07T05:36:29;25.55;;;14.05;;
81508;SDS011;70930;52.412;13.554;2023-12-07T05:38:55;30.70;;;13.27;;
81508;SDS011;70930;52.412;13.554;2023-12-07T05:41:20;26.35;;;13.00;;
81508;SDS011;70930;52.412;13.554;2023-12-07T05:43:46;24.95;;;12.95;;
81508;SDS011;70930;52.412;13.554;2023-12-07T05:46:16;26.92;;;14.70;;
81508;SDS011;70930;52.412;13.554;2023-12-07T05:48:42;24.15;;;12.93;;
81508;SDS011;70930;52.412;13.554;2023-12-07T05:51:12;27.27;;;14.55;;
81508;SDS011;70930;52.412;13.554;2023-12-07T05:53:41;26.73;;;13.85;;
81508;SDS011;70930;52.412;13.554;2023-12-07T05:56:08;27.35;;;14.23;;
81508;SDS011;70930;52.412;13.554;2023-12-07T05:58:33;26.00;;;12.60;;
81508;SDS011;70930;52.412;13.554;2023-12-07T06:01:00;23.70;;;13.57;;
81508;SDS011;70930;52.412;13.554;2023-12-07T06:03:26;25.83;;;13.20;;
81508;SDS011;70930;52.412;13.554;2023-12-07T06:05:51;25.63;;;13.80;;
81508;SDS011;70930;52.412;13.554;2023-12-07T06:08:17;27.95;;;15.32;;
81508;SDS011;70930;52.412;13.554;2023-12-07T06:10:42;29.23;;;14.80;;
81508;SDS011;70930;52.412;13.554;2023-12-07T06:13:08;23.15;;;12.70;;
81508;SDS011;70930;52.412;13.554;2023-12-07T06:15:33;38.97;;;17.63;;
81508;SDS011;70930;52.412;13.554;2023-12-07T06:17:59;23.33;;;13.68;;
81508;SDS011;70930;52.412;13.554;2023-12-07T06:20:24;24.52;;;13.00;;
81508;SDS011;70930;52.412;13.554;2023-12-07T06:22:50;42.45;;;18.02;;
81508;SDS011;70930;52.412;13.554;2023-12-07T06:25:15;24.80;;;14.32;;
81508;SDS011;70930;52.412;13.554;2023-12-07T06:27:41;27.48;;;14.73;;
81508;SDS011;70930;52.412;13.554;2023-12-07T06:30:07;30.33;;;14.20;;
81508;SDS011;70930;52.412;13.554;2023-12-07T06:32:32;25.38;;;13.13;;
81508;SDS011;70930;52.412;13.554;2023-12-07T06:34:59;22.60;;;12.88;;
81508;SDS011;70930;52.412;13.554;2023-12-07T06:37:24;29.65;;;15.43;;
81508;SDS011;70930;52.412;13.554;2023-12-07T06:39:50;27.92;;;13.93;;
81508;SDS011;70930;52.412;13.554;2023-12-07T06:42:15;28.17;;;14.18;;
81508;SDS011;70930;52.412;13.554;2023-12-07T06:44:50;26.48;;;14.68;;
81508;SDS011;70930;52.412;13.554;2023-12-07T06:47:16;36.85;;;17.55;;
81508;SDS011;70930;52.412;13.554;2023-12-07T06:49:42;22.65;;;13.45;;
81508;SDS011;70930;52.412;13.554;2023-12-07T06:52:07;22.23;;;13.27;;
81508;SDS011;70930;52.412;13.554;2023-12-07T06:54:33;23.08;;;13.27;;
81508;SDS011;70930;52.412;13.554;2023-12-07T06:56:59;28.10;;;13.90;;
81508;SDS011;70930;52.412;13.554;2023-12-07T06:59:24;27.67;;;14.15;;
81508;SDS011;70930;52.412;13.554;2023-12-07T07:01:50;27.23;;;14.52;;
81508;SDS011;70930;52.412;13.554;2023-12-07T07:04:15;27.13;;;14.75;;
81508;SDS011;70930;52.412;13.554;2023-12-07T07:06:41;28.65;;;13.52;;
81508;SDS011;70930;52.412;13.554;2023-12-07T07:09:09;24.92;;;13.10;;
81508;SDS011;70930;52.412;13.554;2023-12-07T07:11:35;27.55;;;14.48;;
81508;SDS011;70930;52.412;13.554;2023-12-07T07:14:02;27.05;;;13.57;;
81508;SDS011;70930;52.412;13.554;2023-12-07T07:16:27;27.83;;;14.00;;
81508;SDS011;70930;52.412;13.554;2023-12-07T07:18:53;27.52;;;14.05;;
81508;SDS011;70930;52.412;13.554;2023-12-07T07:21:18;28.58;;;14.55;;
81508;SDS011;70930;52.412;13.554;2023-12-07T07:23:44;29.00;;;14.30;;
81508;SDS011;70930;52.412;13.554;2023-12-07T07:26:10;31.27;;;15.57;;
81508;SDS011;70930;52.412;13.554;2023-12-07T07:28:35;24.65;;;13.07;;
81508;SDS011;70930;52.412;13.554;2023-12-07T07:31:01;25.27;;;13.00;;
81508;SDS011;70930;52.412;13.554;2023-12-07T07:33:27;28.55;;;14.02;;
81508;SDS011;70930;52.412;13.554;2023-12-07T07:35:53;38.33;;;17.38;;
81508;SDS011;70930;52.412;13.554;2023-12-07T07:38:18;28.95;;;15.32;;
81508;SDS011;70930;52.412;13.554;2023-12-07T07:40:43;27.25;;;13.30;;
81508;SDS011;70930;52.412;13.554;2023-12-07T07:43:10;33.80;;;15.15;;
81508;SDS011;70930;52.412;13.554;2023-12-07T07:45:36;25.13;;;13.90;;
81508;SDS011;70930;52.412;13.554;2023-12-07T07:48:04;28.10;;;14.90;;
81508;SDS011;70930;52.412;13.554;2023-12-07T07:50:30;30.45;;;15.50;;
81508;SDS011;70930;52.412;13.554;2023-12-07T07:52:55;40.35;;;17.75;;
81508;SDS011;70930;52.412;13.554;2023-12-07T07:55:21;27.33;;;14.82;;
81508;SDS011;70930;52.412;13.554;2023-12-07T07:57:46;37.60;;;16.65;;
81508;SDS011;70930;52.412;13.554;2023-12-07T08:00:12;29.05;;;14.10;;
81508;SDS011;70930;52.412;13.554;2023-12-07T08:02:38;26.83;;;14.07;;
81508;SDS011;70930;52.412;13.554;2023-12-07T08:05:06;27.13;;;13.05;;
81508;SDS011;70930;52.412;13.554;2023-12-07T08:07:32;33.58;;;15.55;;
81508;SDS011;70930;52.412;13.554;2023-12-07T08:09:57;34.40;;;15.93;;
81508;SDS011;70930;52.412;13.554;2023-12-07T08:12:23;35.50;;;17.05;;
81508;SDS011;70930;52.412;13.554;2023-12-07T08:14:48;38.40;;;17.10;;
81508;SDS011;70930;52.412;13.554;2023-12-07T08:17:14;25.90;;;13.85;;
81508;SDS011;70930;52.412;13.554;2023-12-07T08:19:41;30.10;;;14.23;;
81508;SDS011;70930;52.412;13.554;2023-12-07T08:22:07;27.95;;;14.88;;
81508;SDS011;70930;52.412;13.554;2023-12-07T08:24:33;26.17;;;14.23;;
81508;SDS011;70930;52.412;13.554;2023-12-07T08:26:58;29.33;;;15.32;;
81508;SDS011;70930;52.412;13.554;2023-12-07T08:29:24;30.90;;;15.23;;
81508;SDS011;70930;52.412;13.554;2023-12-07T08:31:52;26.73;;;13.77;;
81508;SDS011;70930;52.412;13.554;2023-12-07T08:34:18;28.00;;;13.68;;
81508;SDS011;70930;52.412;13.554;2023-12-07T08:36:43;31.23;;;14.35;;
81508;SDS011;70930;52.412;13.554;2023-12-07T08:39:08;30.60;;;14.15;;
81508;SDS011;70930;52.412;13.554;2023-12-07T08:41:35;32.75;;;14.55;;
81508;SDS011;70930;52.412;13.554;2023-12-07T08:44:01;31.92;;;15.63;;
81508;SDS011;70930;52.412;13.554;2023-12-07T08:46:27;39.65;;;16.73;;
81508;SDS011;70930;52.412;13.554;2023-12-07T08:48:52;32.28;;;15.70;;
81508;SDS011;70930;52.412;13.554;2023-12-07T08:51:18;38.33;;;17.95;;
81508;SDS011;70930;52.412;13.554;2023-12-07T08:53:44;31.40;;;14.45;;
81508;SDS011;70930;52.412;13.554;2023-12-07T08:56:10;35.75;;;16.88;;
81508;SDS011;70930;52.412;13.554;2023-12-07T08:58:38;31.42;;;15.02;;
81508;SDS011;70930;52.412;13.554;2023-12-07T09:01:03;33.20;;;16.73;;
81508;SDS011;70930;52.412;13.554;2023-12-07T09:03:30;30.73;;;15.18;;
81508;SDS011;70930;52.412;13.554;2023-12-07T09:05:57;39.75;;;16.33;;
81508;SDS011;70930;52.412;13.554;2023-12-07T09:08:25;45.72;;;18.98;;
81508;SDS011;70930;52.412;13.554;2023-12-07T09:10:50;30.75;;;14.98;;
81508;SDS011;70930;52.412;13.554;2023-12-07T09:13:17;36.35;;;16.63;;
81508;SDS011;70930;52.412;13.554;2023-12-07T09:15:43;32.03;;;15.25;;
81508;SDS011;70930;52.412;13.554;2023-12-07T09:18:08;29.75;;;15.32;;
81508;SDS011;70930;52.412;13.554;2023-12-07T09:20:35;32.97;;;15.60;;
81508;SDS011;70930;52.412;13.554;2023-12-07T09:23:02;32.55;;;15.02;;
81508;SDS011;70930;52.412;13.554;2023-12-07T09:25:28;28.80;;;14.70;;
81508;SDS011;70930;52.412;13.554;2023-12-07T09:27:55;38.85;;;18.27;;
81508;SDS011;70930;52.412;13.554;2023-12-07T09:30:21;35.63;;;16.15;;
81508;SDS011;70930;52.412;13.554;2023-12-07T09:32:47;40.72;;;18.23;;
81508;SDS011;70930;52.412;13.554;2023-12-07T09:35:12;28.48;;;14.95;;
81508;SDS011;70930;52.412;13.554;2023-12-07T09:37:44;38.45;;;16.63;;
81508;SDS011;70930;52.412;13.554;2023-12-07T09:40:20;32.30;;;16.05;;
81508;SDS011;70930;52.412;13.554;2023-12-07T09:42:46;32.63;;;15.57;;
81508;SDS011;70930;52.412;13.554;2023-12-07T09:45:12;35.25;;;16.98;;
81508;SDS011;70930;52.412;13.554;2023-12-07T09:50:15;28.85;;;14.20;;
81508;SDS011;70930;52.412;13.554;2023-12-07T09:52:42;35.67;;;16.73;;
81508;SDS011;70930;52.412;13.554;2023-12-07T09:55:08;31.85;;;15.63;;
81508;SDS011;70930;52.412;13.554;2023-12-07T09:57:34;34.13;;;16.40;;
81508;SDS011;70930;52.412;13.554;2023-12-07T10:00:02;29.38;;;13.95;;
81508;SDS011;70930;52.412;13.554;2023-12-07T10:02:29;36.20;;;15.85;;
81508;SDS011;70930;52.412;13.554;2023-12-07T10:05:11;36.58;;;15.35;;
81508;SDS011;70930;52.412;13.554;2023-12-07T10:07:41;41.17;;;16.73;;
81508;SDS011;70930;52.412;13.554;2023-12-07T10:10:08;30.95;;;15.80;;
81508;SDS011;70930;52.412;13.554;2023-12-07T10:12:40;35.78;;;15.73;;
81508;SDS011;70930;52.412;13.554;2023-12-07T10:15:12;34.83;;;15.65;;
81508;SDS011;70930;52.412;13.554;2023-12-07T10:17:58;40.58;;;15.50;;
81508;SDS011;70930;52.412;13.554;2023-12-07T10:20:25;38.67;;;17.33;;
81508;SDS011;70930;52.412;13.554;2023-12-07T10:23:01;30.40;;;15.05;;
81508;SDS011;70930;52.412;13.554;2023-12-07T10:25:32;34.00;;;15.52;;
81508;SDS011;70930;52.412;13.554;2023-12-07T10:28:06;33.58;;;14.18;;
81508;SDS011;70930;52.412;13.554;2023-12-07T10:30:36;35.55;;;16.50;;
81508;SDS011;70930;52.412;13.554;2023-12-07T10:33:03;36.65;;;15.70;;
81508;SDS011;70930;52.412;13.554;2023-12-07T10:35:29;32.80;;;14.70;;
81508;SDS011;70930;52.412;13.554;2023-12-07T10:37:55;41.28;;;16.98;;
81508;SDS011;70930;52.412;13.554;2023-12-07T10:40:20;35.13;;;15.35;;
81508;SDS011;70930;52.412;13.554;2023-12-07T10:42:47;31.60;;;14.52;;
81508;SDS011;70930;52.412;13.554;2023-12-07T10:45:15;29.95;;;14.73;;
81508;SDS011;70930;52.412;13.554;2023-12-07T10:47:43;34.30;;;14.73;;
81508;SDS011;70930;52.412;13.554;2023-12-07T10:50:09;38.55;;;15.93;;
81508;SDS011;70930;52.412;13.554;2023-12-07T10:52:48;36.10;;;15.63;;
81508;SDS011;70930;52.412;13.554;2023-12-07T10:55:24;35.20;;;16.55;;
81508;SDS011;70930;52.412;13.554;2023-12-07T10:57:53;34.80;;;15.00;;
81508;SDS011;70930;52.412;13.554;2023-12-07T11:00:23;35.85;;;15.55;;
81508;SDS011;70930;52.412;13.554;2023-12-07T11:02:50;35.40;;;16.10;;
81508;SDS011;70930;52.412;13.554;2023-12-07T11:05:17;34.63;;;15.48;;
81508;SDS011;70930;52.412;13.554;2023-12-07T11:15:53;35.63;;;15.77;;
81508;SDS011;70930;52.412;13.554;2023-12-07T11:18:19;37.80;;;16.20;;
81508;SDS011;70930;52.412;13.554;2023-12-07T11:20:45;47.95;;;17.42;;
81508;SDS011;70930;52.412;13.554;2023-12-07T11:25:46;37.67;;;16.25;;
81508;SDS011;70930;52.412;13.554;2023-12-07T11:28:12;39.58;;;16.58;;
81508;SDS011;70930;52.412;13.554;2023-12-07T11:30:38;43.35;;;16.88;;
81508;SDS011;70930;52.412;13.554;2023-12-07T11:33:06;35.45;;;15.00;;
81508;SDS011;70930;52.412;13.554;2023-12-07T11:35:39;36.67;;;15.82;;
81508;SDS011;70930;52.412;13.554;2023-12-07T11:38:28;37.83;;;16.02;;
81508;SDS011;70930;52.412;13.554;2023-12-07T11:40:54;34.75;;;15.20;;
81508;SDS011;70930;52.412;13.554;2023-12-07T11:43:31;34.40;;;15.25;;
81508;SDS011;70930;52.412;13.554;2023-12-07T11:46:03;35.72;;;15.38;;
81508;SDS011;70930;52.412;13.554;2023-12-07T11:48:28;32.67;;;15.00;;
81508;SDS011;70930;52.412;13.554;2023-12-07T11:51:00;27.67;;;13.95;;
81508;SDS011;70930;52.412;13.554;2023-12-07T11:53:30;30.85;;;14.68;;
81508;SDS011;70930;52.412;13.554;2023-12-07T11:56:00;36.95;;;16.25;;
81508;SDS011;70930;52.412;13.554;2023-12-07T11:58:27;28.35;;;12.68;;
81508;SDS011;70930;52.412;13.554;2023-12-07T12:00:53;26.50;;;13.80;;
81508;SDS011;70930;52.412;13.554;2023-12-07T12:03:21;33.15;;;15.68;;
81508;SDS011;70930;52.412;13.554;2023-12-07T12:05:50;31.58;;;13.13;;
81508;SDS011;70930;52.412;13.554;2023-12-07T12:08:16;31.17;;;15.07;;
81508;SDS011;70930;52.412;13.554;2023-12-07T12:10:43;29.23;;;14.15;;
81508;SDS011;70930;52.412;13.554;2023-12-07T12:13:09;27.85;;;13.70;;
81508;SDS011;70930;52.412;13.554;2023-12-07T12:15:34;35.17;;;16.38;;
81508;SDS011;70930;52.412;13.554;2023-12-07T12:18:00;30.05;;;14.85;;
81508;SDS011;70930;52.412;13.554;2023-12-07T12:20:26;24.55;;;13.40;;
81508;SDS011;70930;52.412;13.554;2023-12-07T12:22:52;34.55;;;16.23;;
81508;SDS011;70930;52.412;13.554;2023-12-07T12:25:20;32.17;;;15.48;;
81508;SDS011;70930;52.412;13.554;2023-12-07T12:27:47;34.47;;;15.07;;
81508;SDS011;70930;52.412;13.554;2023-12-07T12:30:14;31.08;;;14.10;;
81508;SDS011;70930;52.412;13.554;2023-12-07T12:32:45;35.35;;;16.25;;
81508;SDS011;70930;52.412;13.554;2023-12-07T12:35:11;36.22;;;16.27;;
81508;SDS011;70930;52.412;13.554;2023-12-07T12:37:41;32.10;;;15.02;;
81508;SDS011;70930;52.412;13.554;2023-12-07T12:40:08;31.67;;;15.77;;
81508;SDS011;70930;52.412;13.554;2023-12-07T12:42:35;33.33;;;15.63;;
81508;SDS011;70930;52.412;13.554;2023-12-07T12:45:04;35.33;;;16.52;;
81508;SDS011;70930;52.412;13.554;2023-12-07T12:47:30;33.70;;;15.73;;
81508;SDS011;70930;52.412;13.554;2023-12-07T12:49:56;37.30;;;16.70;;
81508;SDS011;70930;52.412;13.554;2023-12-07T12:52:23;34.25;;;15.20;;
81508;SDS011;70930;52.412;13.554;2023-12-07T12:54:50;33.95;;;16.02;;
81508;SDS011;70930;52.412;13.554;2023-12-07T12:57:16;43.72;;;16.60;;
81508;SDS011;70930;52.412;13.554;2023-12-07T12:59:44;36.40;;;16.75;;
81508;SDS011;70930;52.412;13.554;2023-12-07T13:02:10;34.55;;;16.35;;
81508;SDS011;70930;52.412;13.554;2023-12-07T13:04:35;32.83;;;15.65;;
81508;SDS011;70930;52.412;13.554;2023-12-07T13:07:01;31.73;;;16.42;;
81508;SDS011;70930;52.412;13.554;2023-12-07T13:09:26;36.10;;;16.42;;
81508;SDS011;70930;52.412;13.554;2023-12-07T13:11:51;34.47;;;16.75;;
81508;SDS011;70930;52.412;13.554;2023-12-07T13:14:17;37.33;;;16.75;;
81508;SDS011;70930;52.412;13.554;2023-12-07T13:16:42;34.70;;;17.25;;
81508;SDS011;70930;52.412;13.554;2023-12-07T13:19:08;37.20;;;18.83;;
81508;SDS011;70930;52.412;13.554;2023-12-07T13:21:33;38.78;;;17.23;;
81508;SDS011;70930;52.412;13.554;2023-12-07T13:23:58;38.53;;;18.05;;
81508;SDS011;70930;52.412;13.554;2023-12-07T13:26:24;37.97;;;17.55;;
81508;SDS011;70930;52.412;13.554;2023-12-07T13:28:49;35.83;;;18.45;;
81508;SDS011;70930;52.412;13.554;2023-12-07T13:31:15;39.38;;;18.83;;
81508;SDS011;70930;52.412;13.554;2023-12-07T13:33:40;40.90;;;18.60;;
81508;SDS011;70930;52.412;13.554;2023-12-07T13:36:06;40.45;;;20.40;;
81508;SDS011;70930;52.412;13.554;2023-12-07T13:38:32;48.80;;;20.80;;
81508;SDS011;70930;52.412;13.554;2023-12-07T13:41:00;39.35;;;18.45;;
81508;SDS011;70930;52.412;13.554;2023-12-07T13:43:27;52.78;;;21.02;;
81508;SDS011;70930;52.412;13.554;2023-12-07T13:45:52;44.50;;;20.85;;
81508;SDS011;70930;52.412;13.554;2023-12-07T13:48:18;44.22;;;20.08;;
81508;SDS011;70930;52.412;13.554;2023-12-07T13:50:43;56.97;;;21.83;;
81508;SDS011;70930;52.412;13.554;2023-12-07T13:53:09;47.00;;;22.17;;
81508;SDS011;70930;52.412;13.554;2023-12-07T13:55:38;39.00;;;20.35;;
81508;SDS011;70930;52.412;13.554;2023-12-07T13:58:04;50.97;;;24.38;;
81508;SDS011;70930;52.412;13.554;2023-12-07T14:00:31;48.40;;;23.48;;
81508;SDS011;70930;52.412;13.554;2023-12-07T14:02:58;46.35;;;20.77;;
81508;SDS011;70930;52.412;13.554;2023-12-07T14:05:23;55.88;;;23.67;;
81508;SDS011;70930;52.412;13.554;2023-12-07T14:07:50;66.57;;;26.90;;
81508;SDS011;70930;52.412;13.554;2023-12-07T14:10:15;57.22;;;23.45;;
81508;SDS011;70930;52.412;13.554;2023-12-07T14:12:41;55.53;;;23.25;;
81508;SDS011;70930;52.412;13.554;2023-12-07T14:15:06;53.05;;;23.67;;
81508;SDS011;70930;52.412;13.554;2023-12-07T14:17:33;49.42;;;21.33;;
81508;SDS011;70930;52.412;13.554;2023-12-07T14:20:05;49.72;;;21.40;;